• Join FlightAware (Why Join?)
  • Login
  • US Flag 
04:56PM EDT


 

Airport Tracker/Info


-or-


 

Live Flight TrackerFlight Track Log ✈ SKW5550 ✈ 21-Aug-2013 ✈ KCOD - KDEN

Flight Track Log - Related Links

Times and Time Zones

All times are in EDT time to prevent confusion due to time zone crossing. See the SKW5550 flight status page for this flight to view local times or setup timezone preferences in your user account.

Time Position Orientation Groundspeed Altitude Reporting Facility
EDT Latitude Longitude Course Direction KTS MPH feet Rate Location/Type
07:58AM 44.5392 -108.9936 28° Northeast 156 180 6,200  Level Salt Lake Center
07:59AM 44.5844 -108.9872 North 191 220 8,300 1,980 Climbing Salt Lake Center
08:00AM 44.6350 -108.9831 North 206 237 10,300 1,620 Climbing Salt Lake Center
08:01AM 44.6108 -108.9097 115° Southeast 238 274 11,600 1,560 Climbing Salt Lake Center
08:02AM 44.5183 -108.9050 178° South 269 310 13,500 1,560 Climbing Salt Lake Center
08:03AM 44.6105 -108.9546 28° Northeast  Level FlightAware Approximate
08:03AM 44.4369 -108.8586 158° South 307 353 14,800  Level Salt Lake Center
08:04AM 44.3514 -108.8106 158° South 324 373 16,100 1,320 Climbing Salt Lake Center
08:05AM 44.2628 -108.7583 157° South 338 389 17,500 1,380 Climbing Salt Lake Center
08:06AM 44.1731 -108.7069 158° South 347 399 19,000 1,260 Climbing Salt Lake Center
08:07AM 44.0825 -108.6547 157° South 351 404 20,100 960 Climbing Salt Lake Center
08:08AM 43.9903 -108.6025 158° South 357 411 21,000 1,020 Climbing Salt Lake Center
08:09AM 43.8950 -108.5469 157° South 370 426 22,200 1,020 Climbing Salt Lake Center
08:10AM 43.7978 -108.4908 157° South 377 434 23,100 900 Climbing Salt Lake Center
08:11AM 43.7000 -108.4358 158° South 381 438 24,100 840 Climbing Salt Lake Center
08:12AM 43.6008 -108.3808 158° South 385 443 24,800 660 Climbing Salt Lake Center
08:13AM 43.5000 -108.3231 157° South 392 451 25,500 660 Climbing Salt Lake Center
08:14AM 43.4064 -108.2419 148° Southeast 399 459 26,200 720 Climbing Salt Lake Center
08:15AM 43.3175 -108.1481 142° Southeast 403 464 27,000 660 Climbing Salt Lake Center
08:16AM 43.2281 -108.0539 142° Southeast 406 467 27,600 540 Climbing Salt Lake Center
08:17AM 43.1386 -107.9589 142° Southeast 408 470 28,100 480 Climbing Salt Lake Center
08:18AM 43.0472 -107.8633 143° Southeast 413 475 28,600 480 Climbing Salt Lake Center
08:19AM 42.9547 -107.7656 142° Southeast 419 482 29,100 540 Climbing Salt Lake Center
08:20AM 42.8511 -107.6569 142° Southeast 419 482 29,700 420 Climbing Salt Lake Center
08:21AM 42.7614 -107.5656 143° Southeast 419 482 30,000 300 Climbing Salt Lake Center
08:22AM 42.6711 -107.4731 143° Southeast 422 486 30,400 420 Climbing Salt Lake Center
08:23AM 42.5653 -107.3647 143° Southeast 426 490 30,900 240 Climbing Salt Lake Center
08:24AM 42.4744 -107.2725 143° Southeast 425 489 31,000  Climbing Salt Lake Center
08:25AM 42.3806 -107.1783 143° Southeast 434 499 31,000  Level Salt Lake Center
08:25AM 42.3181 -107.1133 142° Southeast 441 507 31,000  Level Denver Center
08:26AM 42.2214 -107.0181 144° Southeast 448 516 31,000  Level Denver Center
08:27AM 42.1278 -106.9231 143° Southeast 441 507 31,000  Level Denver Center
08:28AM 42.0156 -106.8111 143° Southeast 447 514 31,000  Level Denver Center
08:29AM 41.9194 -106.7167 144° Southeast 447 514 31,000  Level Denver Center
08:30AM 41.8253 -106.6222 143° Southeast 442 509 31,000  Level Denver Center
08:31AM 41.7169 -106.5167 144° Southeast 433 498 31,000  Level Denver Center
08:32AM 41.6183 -106.4186 143° Southeast 428 493 31,000  Level Denver Center
08:33AM 41.5256 -106.3283 144° Southeast 430 495 31,000  Level Denver Center
08:34AM 41.4347 -106.2392 144° Southeast 426 490 31,000  Level Denver Center
08:35AM 41.3275 -106.1350 144° Southeast 428 493 31,000  Level Denver Center
08:36AM 41.2358 -106.0478 144° Southeast 425 489 31,000  Level Denver Center
08:37AM 41.1425 -105.9581 144° Southeast 430 495 31,000  Level Denver Center
08:38AM 41.0336 -105.8533 144° Southeast 432 497 31,000 -600 Level Denver Center
08:39AM 40.9367 -105.7603 144° Southeast 441 507 29,800 -1,380 Descending Denver Center
08:41AM 40.8289 -105.6564 144° Southeast 469 540 28,200 -1,560 Descending Denver Center
08:42AM 40.7239 -105.5575 144° Southeast 469 540 26,700 -1,560 Descending Denver Center
08:43AM 40.6275 -105.4656 144° Southeast 439 505 25,100 -1,800 Descending Denver Center
08:44AM 40.5583 -105.3561 130° Southeast 390 449 23,100 -1,920 Descending Denver Center
08:45AM 40.4961 -105.2450 126° Southeast 378 435 21,200 -1,560 Descending Denver Center
08:46AM 40.4078 -105.1719 148° Southeast 333 383 20,000 -1,680 Descending Denver Center
08:47AM 40.3231 -105.1014 148° Southeast 334 384 17,800 -1,680 Descending Denver Center
08:48AM 40.2622 -105.0544 150° Southeast 331 381 16,700 -1,080 Descending Denver Center
08:49AM 40.1767 -104.9847 148° Southeast 291 335 15,600 -1,080 Descending Denver Center
08:50AM 40.1069 -104.9297 149° Southeast 292 336 14,600 -1,080 Descending Denver Center
08:51AM 40.0347 -104.8711 148° Southeast 283 326 13,500 -1,080 Descending Denver Center
08:52AM 39.9667 -104.8172 149° Southeast 284 327 12,500 -1,020 Descending Denver Center
08:53AM 39.8928 -104.8072 174° South 271 312 11,500 -780 Descending Denver Center
08:54AM 39.8122 -104.8092 181° South 272 313 11,000 -300 Descending Denver Center
08:55AM 39.7444 -104.8111 181° South 247 284 10,900 -720 Descending Denver Center
08:56AM 39.6850 -104.7803 158° South 255 293 9,600 -1,080 Descending Denver Center
08:57AM 39.7122 -104.7086 64° Northeast 221 254 8,800 -1,080 Descending Denver Center
08:58AM 39.7603 -104.6897 17° North 179 206 7,500 -1,080 Descending Denver Center
08:59AM 39.8022 -104.6878 North 154 177 6,600 -900 Descending Denver Center
09:00AM 39.8450 -104.6872 North 146 168 5,700 -660 Descending Denver Center
09:01AM 39.8800 -104.6869 360° North 132 152 5,300 -420 Descending Denver Center